AirNav   Air Wisconsin pilot careers
 
 496 users online  

CPF2 Bar River Airport
Bar River, Ontario, Canada

GOING TO BAR RIVER?


FAA INFORMATION EFFECTIVE 29 MARCH 2018

Location

FAA Identifier: CPF2
Lat/Long: 46-25-13.0000N / 084-05-32.0000W
46-25.216667N / 084-05.533333W
46.4202778 / -84.0922222
(estimated)
Elevation: 591 ft. / 180 m
From city: 3 miles SW of BAR RIVER,
Time zone: UTC -4 (UTC -5 during Standard Time)
Zip code: 49788

Airport Operations

Airport use: Open to the public
Activation date: 04/2005
Control tower: no
ARTCC: WINNIPEG CENTER
FSS: LONDON FIC FLIGHT SERVICE STATION
Attendance: 
Segmented circle: no

Airport Communications

WX ASOS at ANJ (12 nm W): 118.375 (906-632-8501)
WX AWOS-3PT at CIU (19 nm SW): 127.575 (906-495-7134)

Nearby radio navigation aids

VOR radial/distance  VOR name  Freq  Var
SSMr091/9.2SAULT STE MARIE VOR/DME112.2004W

Airport Services

Runway Information

Runway 11/29

Dimensions: 2850 x 50 ft. / 869 x 15 m
Surface: asphalt
RUNWAY 11  RUNWAY 29
Traffic pattern: leftleft

Airport Ownership and Management from official FAA records

Ownership: Privately-owned

Instrument Procedures

There are no published instrument procedures at CPF2.

Some nearby airports with instrument procedures:

KANJ - Sault Ste Marie Municipal Airport/Sanderson Field (12 nm W)
KCIU - Chippewa County International Airport (19 nm SW)
KDRM - Drummond Island Airport (29 nm SE)
KMCD - Mackinac Island Airport (40 nm SW)
83D - Mackinac County Airport (42 nm SW)
 
Loc | Ops | Rwys | IFR | FBO | Links
Com | Nav | Svcs | Stats | Notes

AirNav Hotels Sweepstakes
 
Aerial photo
No photo
 
Airport distance calculator
Flying to Bar River Airport? Find the distance to fly.

From to CPF2

Sunrise and sunset
Times for 24-Apr-2018
 Local
(UTC-4)
 Zulu
(UTC)
Morning civil twilight06:0210:02
Sunrise06:3510:35
Sunset20:3500:35
Evening civil twilight21:0701:07

Current date and time
Zulu (UTC)  24-Apr-2018 06:04:12
Local (UTC-4)  24-Apr-2018 02:04:12
 
METAR
KANJ 
12nm W 
240555Z AUTO 09003KT 10SM CLR 06/M04 A3015 RMK AO2 SLP212 T00611044 10128 20061 56004
CYAM 
18nm W 
240500Z 07003KT 15SM BKN220 01/M04 A3016 RMK CI7 SLP220
KCIU 
19nm SW 
240556Z AUTO 14004KT 10SM CLR 03/M05 A3016 RMK AO2 SLP240 T00331050 10117 20033 56004
TAF
CYAM 
18nm W 
240138Z 2402/2414 VRB03KT P6SM FEW140 SCT210 BKN240 BECMG 2402/2404 05005KT RMK NXT FCST BY 240800Z
NOTAMs
Click for the latest NOTAMs
NOTAMs are issued by the DoD/FAA and will open in a separate window not controlled by AirNav.

 

 
 

Would you like to see your business listed on this page?

 If your business provides an interesting product or service to pilots, flight crews, aircraft, or users of the Bar River Airport, you should consider listing it here.  To start the listing process, click on the button below
 
Add a business
 

Other Pages about Bar River Airport

Update a link
 
Copyright © AirNav, LLC. All rights reserved. Privacy Policy  Contact